Time;durP1;ratioP1;P1;durP2;ratioP2;P2;SDS_P1;SDS_P2;PMS_P1;PMS_P2;Temp;Humidity;BMP_temperature;BMP_pressure;BME280_temperature;BME280_humidity;BME280_pressure;Samples;Min_cycle;Max_cycle;Signal;HPM_P1;HPM_P2
2021/04/30 00:02:16;;;;;;;10.82;9.20;;;6.90;99.90;;;;;;5011625;28;20487;-86
2021/04/30 00:04:42;;;;;;;12.93;9.75;;;6.90;99.90;;;;;;5013168;28;20037;-86
2021/04/30 00:07:08;;;;;;;10.55;9.15;;;6.80;99.90;;;;;;5014805;28;20087;-88
2021/04/30 00:09:36;;;;;;;12.30;9.23;;;6.90;99.90;;;;;;5014034;28;20132;-85
2021/04/30 00:12:03;;;;;;;11.45;9.70;;;6.90;99.90;;;;;;5024972;28;20045;-87
2021/04/30 00:14:30;;;;;;;13.38;10.13;;;6.90;99.90;;;;;;5032120;28;20102;-85
2021/04/30 00:16:58;;;;;;;11.10;9.30;;;6.90;99.90;;;;;;5015399;28;20052;-88
2021/04/30 00:19:26;;;;;;;11.75;10.48;;;6.90;99.90;;;;;;5013207;28;20107;-87
2021/04/30 00:21:57;;;;;;;12.68;9.70;;;6.90;99.90;;;;;;4998054;28;20152;-89
2021/04/30 00:24:23;;;;;;;12.57;10.70;;;6.90;99.90;;;;;;5033742;28;20133;-86
2021/04/30 00:26:52;;;;;;;13.90;10.02;;;6.90;99.90;;;;;;5018137;28;20045;-88
2021/04/30 00:29:19;;;;;;;11.88;9.48;;;6.90;99.90;;;;;;5027719;28;20132;-87
2021/04/30 00:31:48;;;;;;;11.43;10.23;;;6.90;99.90;;;;;;5029321;28;20046;-87
2021/04/30 00:34:16;;;;;;;10.82;9.35;;;6.90;99.90;;;;;;5013674;28;20156;-87
2021/04/30 00:36:45;;;;;;;13.38;10.32;;;6.80;99.90;;;;;;4997994;28;20140;-88
2021/04/30 00:39:11;;;;;;;11.32;9.73;;;6.80;99.90;;;;;;5014121;28;20145;-88
2021/04/30 00:41:39;;;;;;;13.02;10.20;;;6.80;99.90;;;;;;5011544;28;20073;-88
2021/04/30 00:44:06;;;;;;;10.93;9.63;;;6.80;99.90;;;;;;5023583;28;20125;-88
2021/04/30 00:46:33;;;;;;;12.63;10.05;;;6.80;99.90;;;;;;5028222;28;20071;-87
2021/04/30 00:49:00;;;;;;;12.88;9.88;;;6.80;99.90;;;;;;5027957;28;20077;-87
2021/04/30 00:51:30;;;;;;;13.85;10.85;;;6.80;99.90;;;;;;5013836;28;20119;-87
2021/04/30 00:53:57;;;;;;;15.13;11.02;;;6.70;99.90;;;;;;5005880;28;20104;-87
2021/04/30 00:56:23;;;;;;;11.55;10.02;;;6.70;99.90;;;;;;5009790;28;20103;-88
2021/04/30 00:58:52;;;;;;;11.98;9.80;;;6.70;99.90;;;;;;5026049;28;20065;-88
2021/04/30 01:01:19;;;;;;;11.90;10.50;;;6.70;99.90;;;;;;5027282;28;20080;-88
2021/04/30 01:03:47;;;;;;;15.00;10.93;;;6.80;99.90;;;;;;5028091;28;20030;-88
2021/04/30 01:06:14;;;;;;;17.65;11.27;;;6.80;99.90;;;;;;5043767;28;20055;-88
2021/04/30 01:08:41;;;;;;;12.93;10.23;;;6.70;99.90;;;;;;5045808;28;20897;-86
2021/04/30 01:11:09;;;;;;;11.82;9.70;;;6.70;99.90;;;;;;5036416;28;20061;-87
2021/04/30 01:13:35;;;;;;;12.63;10.82;;;6.70;99.90;;;;;;5028601;28;20116;-86
2021/04/30 01:16:02;;;;;;;15.52;11.85;;;6.70;99.90;;;;;;5036916;28;20053;-87
2021/04/30 01:18:42;;;;;;;14.63;12.25;;;6.70;99.90;;;;;;5039534;28;20105;-87
2021/04/30 01:21:09;;;;;;;15.20;11.88;;;6.70;99.90;;;;;;5029234;28;20144;-88
2021/04/30 01:23:50;;;;;;;12.98;11.55;;;6.70;99.90;;;;;;5014248;28;20053;-88
2021/04/30 01:26:17;;;;;;;12.95;11.18;;;6.70;99.90;;;;;;5013489;28;20131;-88
2021/04/30 01:28:44;;;;;;;15.18;11.63;;;6.70;99.90;;;;;;5008750;28;20132;-87
2021/04/30 01:31:11;;;;;;;16.08;11.60;;;6.70;99.90;;;;;;5009149;28;20136;-86
2021/04/30 01:33:39;;;;;;;18.20;12.75;;;6.70;99.90;;;;;;5015392;28;20048;-87
2021/04/30 01:36:07;;;;;;;16.70;13.20;;;6.60;99.90;;;;;;5007566;28;20518;-89
2021/04/30 01:38:33;;;;;;;19.77;13.32;;;6.70;99.90;;;;;;5012141;28;20049;-89
2021/04/30 01:41:01;;;;;;;16.15;12.48;;;6.60;99.90;;;;;;5022354;28;20053;-87
2021/04/30 01:43:30;;;;;;;13.48;11.35;;;6.70;99.90;;;;;;5006299;28;20436;-87
2021/04/30 01:46:03;;;;;;;15.20;12.50;;;6.70;99.90;;;;;;5015640;28;20114;-87
2021/04/30 01:48:35;;;;;;;18.17;12.45;;;6.70;99.90;;;;;;5014861;28;20064;-86
2021/04/30 01:51:04;;;;;;;16.58;13.35;;;6.60;99.90;;;;;;5010387;28;20042;-87
2021/04/30 01:53:32;;;;;;;17.52;13.98;;;6.50;99.90;;;;;;5011268;28;20118;-84
2021/04/30 01:56:00;;;;;;;20.48;15.13;;;6.40;99.90;;;;;;5013561;28;20077;-88
2021/04/30 01:58:28;;;;;;;18.88;14.57;;;6.30;99.90;;;;;;5010379;28;20045;-88
2021/04/30 02:00:56;;;;;;;20.05;16.08;;;6.20;99.90;;;;;;5027435;28;20122;-87
2021/04/30 02:03:23;;;;;;;17.30;14.80;;;6.10;99.90;;;;;;5005042;28;20065;-88
2021/04/30 02:05:53;;;;;;;19.85;15.50;;;6.10;99.90;;;;;;5015495;28;21244;-89
2021/04/30 02:08:21;;;;;;;17.70;14.88;;;6.10;99.90;;;;;;5015077;28;20111;-87
2021/04/30 02:10:48;;;;;;;21.42;16.02;;;6.00;99.90;;;;;;5028846;28;20113;-88
2021/04/30 02:13:16;;;;;;;18.17;14.90;;;6.00;99.90;;;;;;5008721;28;20088;-88
2021/04/30 02:15:45;;;;;;;20.02;14.55;;;6.00;99.90;;;;;;5003388;28;20046;-87
2021/04/30 02:18:12;;;;;;;17.60;14.00;;;6.00;99.90;;;;;;5030902;28;20648;-87
2021/04/30 02:20:41;;;;;;;18.55;14.68;;;5.90;99.90;;;;;;5009932;28;20103;-87
2021/04/30 02:23:08;;;;;;;21.38;15.35;;;5.90;99.90;;;;;;5007273;28;20430;-88
2021/04/30 02:25:38;;;;;;;16.65;14.23;;;5.80;99.90;;;;;;5015079;28;20081;-88
2021/04/30 02:28:08;;;;;;;19.17;13.93;;;5.80;99.90;;;;;;5029538;28;20129;-88
2021/04/30 02:30:37;;;;;;;18.70;14.73;;;5.70;99.90;;;;;;5004547;28;20102;-87
2021/04/30 02:33:06;;;;;;;20.30;15.18;;;5.70;99.90;;;;;;5011420;28;20462;-88
2021/04/30 02:35:35;;;;;;;19.48;15.15;;;5.70;99.90;;;;;;5013641;28;20647;-88
2021/04/30 02:38:06;;;;;;;18.85;14.07;;;5.70;99.90;;;;;;5001953;28;20068;-87
2021/04/30 02:40:36;;;;;;;20.88;14.05;;;5.70;99.90;;;;;;5007873;28;20054;-87
2021/04/30 02:43:10;;;;;;;20.52;14.50;;;5.60;99.90;;;;;;5002701;28;20427;-89
2021/04/30 02:45:42;;;;;;;17.63;14.27;;;5.60;99.90;;;;;;5006298;28;20114;-89
2021/04/30 02:48:12;;;;;;;19.40;13.95;;;5.60;99.90;;;;;;5006468;28;20084;-88
2021/04/30 02:50:40;;;;;;;21.50;13.75;;;5.50;99.90;;;;;;5010202;28;20125;-88
2021/04/30 02:53:11;;;;;;;19.00;13.68;;;5.40;99.90;;;;;;5009610;28;20133;-88
2021/04/30 02:55:37;;;;;;;17.63;13.18;;;5.30;99.90;;;;;;4989746;28;20311;-88
2021/04/30 02:58:04;;;;;;;19.27;13.70;;;5.20;99.90;;;;;;5009969;28;20129;-88
2021/04/30 03:00:31;;;;;;;19.02;14.60;;;5.20;99.90;;;;;;5010783;28;20104;-89
2021/04/30 03:03:02;;;;;;;20.27;15.25;;;5.10;99.90;;;;;;5001799;28;20137;-89
2021/04/30 03:05:31;;;;;;;19.80;15.45;;;5.10;99.90;;;;;;4995266;28;20046;-90
2021/04/30 03:07:59;;;;;;;19.63;14.98;;;5.10;99.90;;;;;;5011043;28;20073;-89
2021/04/30 03:10:28;;;;;;;21.65;15.30;;;5.10;99.90;;;;;;5006255;28;20436;-89
2021/04/30 03:12:55;;;;;;;19.17;14.48;;;5.20;99.90;;;;;;5007889;28;20133;-89
2021/04/30 03:15:22;;;;;;;20.67;15.35;;;5.20;99.90;;;;;;4996407;28;20128;-88
2021/04/30 03:17:48;;;;;;;20.90;15.32;;;5.30;99.90;;;;;;4993816;28;20432;-88
2021/04/30 03:20:17;;;;;;;19.92;15.00;;;5.30;99.90;;;;;;5010678;28;20375;-87
2021/04/30 03:22:43;;;;;;;21.63;14.43;;;5.40;99.90;;;;;;5000022;28;20097;-89
2021/04/30 03:25:14;;;;;;;18.20;14.07;;;5.50;99.90;;;;;;5008869;28;20053;-89
2021/04/30 03:27:44;;;;;;;17.40;13.10;;;5.50;99.90;;;;;;5011270;28;20053;-89
2021/04/30 03:30:11;;;;;;;16.30;12.38;;;5.60;99.90;;;;;;5004755;28;20462;-87
2021/04/30 03:32:39;;;;;;;18.05;12.95;;;5.60;99.90;;;;;;5005985;28;20120;-89
2021/04/30 03:35:10;;;;;;;20.92;13.52;;;5.60;99.90;;;;;;5000977;28;20144;-90
2021/04/30 03:37:36;;;;;;;19.63;13.63;;;5.60;99.90;;;;;;5010944;28;20459;-89
2021/04/30 03:40:03;;;;;;;16.67;12.48;;;5.60;99.90;;;;;;5009781;28;20128;-90
2021/04/30 03:42:30;;;;;;;20.70;14.07;;;5.60;99.90;;;;;;5002339;28;20049;-89
2021/04/30 03:44:56;;;;;;;19.92;12.77;;;5.70;99.90;;;;;;5008623;28;20111;-89
2021/04/30 03:47:22;;;;;;;18.95;13.85;;;5.60;99.90;;;;;;4998495;28;20116;-89
2021/04/30 03:49:49;;;;;;;16.77;13.10;;;5.60;99.90;;;;;;4993712;28;20129;-89
2021/04/30 03:52:17;;;;;;;16.20;12.85;;;5.60;99.90;;;;;;5006012;28;20440;-88
2021/04/30 03:54:43;;;;;;;19.40;13.98;;;5.60;99.90;;;;;;5004388;28;20108;-89
2021/04/30 03:57:10;;;;;;;20.02;14.68;;;5.50;99.90;;;;;;5013155;28;20053;-89
2021/04/30 03:59:37;;;;;;;22.58;15.13;;;5.60;99.90;;;;;;5013231;28;20060;-86
2021/04/30 04:02:04;;;;;;;21.17;15.30;;;5.60;99.90;;;;;;4995819;28;20072;-89
2021/04/30 04:04:40;;;;;;;21.83;15.68;;;5.50;99.90;;;;;;5009516;28;20114;-89
2021/04/30 04:07:06;;;;;;;21.70;15.27;;;5.50;99.90;;;;;;5012231;28;20117;-88
2021/04/30 04:09:33;;;;;;;20.58;14.38;;;5.50;99.90;;;;;;5006733;28;20041;-90
2021/04/30 04:12:01;;;;;;;21.20;16.42;;;5.50;99.90;;;;;;5009669;28;20046;-89
2021/04/30 04:14:31;;;;;;;22.85;15.40;;;5.50;99.90;;;;;;5008830;28;20049;-89
2021/04/30 04:16:57;;;;;;;20.77;15.45;;;5.50;99.90;;;;;;5003447;28;20122;-89
2021/04/30 04:19:24;;;;;;;19.58;15.38;;;5.50;99.90;;;;;;5008866;28;20052;-90
2021/04/30 04:21:50;;;;;;;20.90;15.50;;;5.50;99.90;;;;;;5013784;28;20120;-87
2021/04/30 04:24:17;;;;;;;19.35;14.23;;;5.50;99.90;;;;;;4990767;28;20042;-88
2021/04/30 04:26:43;;;;;;;21.08;15.65;;;5.60;99.90;;;;;;5005635;28;20050;-89
2021/04/30 04:29:10;;;;;;;17.85;14.27;;;5.60;99.90;;;;;;4995418;28;20054;-86
2021/04/30 04:31:39;;;;;;;24.13;16.73;;;5.60;99.90;;;;;;5010529;28;20467;-82
2021/04/30 04:34:06;;;;;;;20.85;16.02;;;5.60;99.90;;;;;;5013227;28;20129;-84
2021/04/30 04:36:33;;;;;;;24.50;16.20;;;5.60;99.90;;;;;;5020392;28;20076;-83
2021/04/30 04:39:02;;;;;;;21.88;16.38;;;5.70;99.90;;;;;;5017436;28;20069;-82
2021/04/30 04:41:31;;;;;;;21.92;16.00;;;5.80;99.90;;;;;;5023933;28;20220;-82
2021/04/30 04:43:57;;;;;;;22.75;16.67;;;5.80;99.90;;;;;;5021213;28;20070;-83
2021/04/30 04:46:23;;;;;;;21.83;15.98;;;5.80;99.90;;;;;;5028679;28;20077;-84
2021/04/30 04:48:50;;;;;;;22.45;15.80;;;5.80;99.90;;;;;;5023698;28;20112;-84
2021/04/30 04:51:16;;;;;;;23.55;16.88;;;5.90;99.90;;;;;;4999859;28;20102;-83
2021/04/30 04:53:45;;;;;;;23.42;16.67;;;5.90;99.90;;;;;;5005497;28;20591;-82
2021/04/30 04:56:19;;;;;;;22.40;16.15;;;5.90;99.90;;;;;;4994342;28;20363;-82
2021/04/30 04:58:45;;;;;;;21.50;16.20;;;5.90;99.90;;;;;;4997914;28;20153;-82
2021/04/30 05:01:13;;;;;;;20.42;16.15;;;6.00;99.90;;;;;;4982649;28;20070;-83
2021/04/30 05:03:44;;;;;;;22.77;15.32;;;6.00;99.90;;;;;;4991205;28;20140;-83
2021/04/30 05:06:12;;;;;;;21.35;16.20;;;6.00;99.90;;;;;;5005613;28;20050;-88
2021/04/30 05:08:39;;;;;;;21.70;15.90;;;6.10;99.90;;;;;;4991445;28;20077;-86
2021/04/30 05:11:05;;;;;;;22.10;16.30;;;6.10;99.90;;;;;;5011105;28;20437;-87
2021/04/30 05:13:33;;;;;;;20.75;16.55;;;6.20;99.90;;;;;;5013741;28;20053;-87
2021/04/30 05:16:00;;;;;;;22.20;16.65;;;6.20;99.90;;;;;;5009173;28;20096;-87
2021/04/30 05:18:31;;;;;;;23.08;16.73;;;6.30;99.90;;;;;;5014139;28;20046;-88
2021/04/30 05:20:57;;;;;;;20.50;15.98;;;6.40;99.90;;;;;;5010063;28;20042;-88
2021/04/30 05:23:24;;;;;;;26.17;17.05;;;6.40;99.90;;;;;;4996799;28;20069;-87
2021/04/30 05:25:54;;;;;;;21.73;15.93;;;6.40;99.90;;;;;;5010006;28;20105;-86
2021/04/30 05:28:22;;;;;;;21.52;16.25;;;6.40;99.90;;;;;;5009925;28;20141;-86
2021/04/30 05:30:49;;;;;;;21.80;17.00;;;6.40;99.90;;;;;;5008505;28;20441;-88
2021/04/30 05:33:15;;;;;;;23.05;15.45;;;6.40;99.90;;;;;;5012850;28;20045;-85
2021/04/30 05:35:42;;;;;;;20.27;15.32;;;6.40;99.90;;;;;;4996075;28;20487;-86
2021/04/30 05:38:09;;;;;;;21.88;16.25;;;6.40;99.90;;;;;;4996705;28;20049;-84
2021/04/30 05:40:36;;;;;;;22.17;15.45;;;6.40;99.90;;;;;;5012427;28;20046;-85
2021/04/30 05:43:03;;;;;;;23.42;15.95;;;6.50;99.90;;;;;;4995943;28;20054;-86
2021/04/30 05:45:29;;;;;;;23.02;16.52;;;6.50;99.90;;;;;;4992919;28;20089;-88
2021/04/30 05:47:55;;;;;;;23.77;16.08;;;6.60;99.90;;;;;;4989632;28;20441;-87
2021/04/30 05:50:24;;;;;;;21.52;15.68;;;6.70;99.90;;;;;;4991676;28;20070;-88
2021/04/30 05:52:51;;;;;;;19.98;15.48;;;6.70;99.90;;;;;;4960220;28;20105;-90
2021/04/30 05:55:42;;;;;;;20.45;15.02;;;6.70;99.90;;;;;;4987586;28;20050;-90
2021/04/30 05:58:10;;;;;;;22.63;15.65;;;6.80;99.90;;;;;;4991303;28;20093;-90
2021/04/30 06:00:40;;;;;;;23.17;15.05;;;6.80;99.90;;;;;;4990920;28;20051;-90
2021/04/30 06:03:27;;;;;;;27.05;15.35;;;6.80;99.90;;;;;;4989814;28;20452;-91
2021/04/30 06:06:04;;;;;;;20.77;15.20;;;6.90;99.90;;;;;;4979208;28;20733;-89
2021/04/30 06:09:19;;;;;;;;;;;;;;;;;;;;;
2021/04/30 06:11:56;;;;;;;23.73;15.45;;;7.00;99.90;;;;;;4991315;28;20050;-91
2021/04/30 06:14:32;;;;;;;22.40;14.93;;;7.10;99.90;;;;;;4973724;28;20046;-90
2021/04/30 06:17:08;;;;;;;20.80;14.68;;;7.10;99.90;;;;;;4988122;28;20478;-89
2021/04/30 06:19:40;;;;;;;19.42;14.23;;;7.10;99.90;;;;;;4991006;28;20467;-90
2021/04/30 06:22:12;;;;;;;;;;;7.10;99.90;;;;;;4984751;28;20054;-84
2021/04/30 06:24:38;;;;;;;21.83;13.98;;;7.10;99.90;;;;;;4986985;28;20005;-89
2021/04/30 06:27:15;;;;;;;;;;;;;;;;;;;;;
2021/04/30 06:29:43;;;;;;;20.13;14.18;;;7.10;99.90;;;;;;4990106;28;20077;-87
2021/04/30 06:32:10;;;;;;;18.55;13.60;;;7.10;99.90;;;;;;4987756;28;20468;-84
2021/04/30 06:34:39;;;;;;;18.58;13.77;;;7.10;99.90;;;;;;4974415;28;20480;-89
2021/04/30 06:37:14;;;;;;;19.70;14.15;;;7.20;99.90;;;;;;4985435;28;20118;-90
2021/04/30 06:39:40;;;;;;;16.52;13.07;;;7.20;99.90;;;;;;4985982;28;20050;-90
2021/04/30 06:42:11;;;;;;;18.98;13.50;;;7.20;99.90;;;;;;4989575;28;20054;-91
2021/04/30 06:44:38;;;;;;;19.30;14.35;;;7.40;99.90;;;;;;5011339;28;20041;-92
2021/04/30 06:47:04;;;;;;;19.25;14.38;;;7.30;99.90;;;;;;5010904;28;20066;-91
2021/04/30 06:49:32;;;;;;;17.55;13.07;;;7.30;99.90;;;;;;4976964;28;20069;-88
2021/04/30 06:51:59;;;;;;;17.98;13.73;;;7.40;99.90;;;;;;5013703;28;20076;-91
2021/04/30 06:54:26;;;;;;;20.13;14.10;;;7.40;99.90;;;;;;5009500;28;20090;-88
2021/04/30 06:56:52;;;;;;;19.42;14.60;;;7.40;99.90;;;;;;5006869;28;20049;-88
2021/04/30 06:59:21;;;;;;;23.38;14.43;;;7.40;99.90;;;;;;5012175;28;20352;-89
2021/04/30 07:01:47;;;;;;;20.92;14.80;;;7.50;99.90;;;;;;5011213;28;20073;-88
2021/04/30 07:04:16;;;;;;;22.48;14.07;;;7.40;99.90;;;;;;5010067;28;20542;-90
2021/04/30 07:06:43;;;;;;;20.65;13.85;;;7.40;99.90;;;;;;4978023;28;20065;-91
2021/04/30 07:09:10;;;;;;;21.92;15.18;;;7.40;99.90;;;;;;4994304;28;20428;-90
2021/04/30 07:11:41;;;;;;;22.83;15.70;;;7.40;99.90;;;;;;5003567;28;20436;-89
2021/04/30 07:14:21;;;;;;;;;;;;;;;;;;;;;
2021/04/30 07:16:57;;;;;;;25.85;14.70;;;7.50;99.90;;;;;;5010729;28;20049;-88
2021/04/30 07:19:24;;;;;;;20.08;14.10;;;7.50;99.90;;;;;;5012995;28;20053;-91
2021/04/30 07:21:50;;;;;;;19.45;14.65;;;7.40;99.90;;;;;;5013086;28;20053;-90
2021/04/30 07:24:17;;;;;;;20.73;14.60;;;7.50;99.90;;;;;;5015185;28;20104;-89
2021/04/30 07:26:43;;;;;;;20.80;15.05;;;7.50;99.90;;;;;;5015754;28;20050;-91
2021/04/30 07:29:11;;;;;;;20.38;15.48;;;7.50;99.90;;;;;;4995865;28;20460;-87
2021/04/30 07:31:37;;;;;;;23.48;15.32;;;7.40;99.90;;;;;;5009904;28;20041;-90
2021/04/30 07:34:26;;;;;;;19.65;15.40;;;7.50;99.90;;;;;;4992303;28;20081;-92
2021/04/30 07:36:53;;;;;;;21.98;14.68;;;7.70;99.90;;;;;;5016937;28;20068;-92
2021/04/30 07:39:19;;;;;;;20.80;14.38;;;7.80;99.90;;;;;;5013938;28;20050;-91
2021/04/30 07:41:48;;;;;;;19.90;14.93;;;7.90;99.90;;;;;;5008578;28;20142;-91
2021/04/30 07:44:15;;;;;;;20.52;14.50;;;7.80;99.90;;;;;;4979907;28;20046;-92
2021/04/30 07:46:44;;;;;;;24.33;15.27;;;7.70;99.90;;;;;;5010875;28;20054;-91
2021/04/30 07:49:13;;;;;;;18.35;13.68;;;7.70;99.90;;;;;;5011038;28;20050;-92
2021/04/30 07:51:42;;;;;;;20.02;15.00;;;7.70;99.90;;;;;;5012938;28;20061;-91
2021/04/30 07:54:12;;;;;;;21.35;14.68;;;7.70;99.90;;;;;;5012722;28;20069;-92
2021/04/30 07:56:39;;;;;;;22.38;15.25;;;7.80;99.90;;;;;;5011593;28;20061;-89
2021/04/30 07:59:08;;;;;;;20.67;14.30;;;7.80;99.90;;;;;;5011620;28;20054;-88
2021/04/30 08:01:34;;;;;;;22.85;14.13;;;7.70;99.90;;;;;;5010706;28;20049;-89
2021/04/30 08:04:01;;;;;;;22.75;13.50;;;7.70;99.90;;;;;;5008632;28;20057;-90
2021/04/30 08:06:29;;;;;;;18.27;12.60;;;7.70;99.90;;;;;;5004084;28;20056;-89
2021/04/30 08:08:58;;;;;;;20.05;14.20;;;7.50;99.90;;;;;;5025194;28;20502;-90
2021/04/30 08:11:24;;;;;;;15.52;13.00;;;7.40;99.90;;;;;;5015996;28;20041;-88
2021/04/30 08:13:52;;;;;;;17.55;12.95;;;7.40;99.90;;;;;;5015511;28;20046;-86
2021/04/30 08:16:21;;;;;;;17.73;13.23;;;7.50;99.90;;;;;;5033865;28;20085;-88
2021/04/30 08:18:48;;;;;;;18.60;13.75;;;7.50;99.90;;;;;;5002626;28;20034;-86
2021/04/30 08:21:15;;;;;;;18.75;13.32;;;7.40;99.90;;;;;;5033267;28;20049;-86
2021/04/30 08:23:42;;;;;;;21.58;13.70;;;7.50;99.90;;;;;;5005285;28;20074;-86
2021/04/30 08:26:11;;;;;;;17.48;13.45;;;7.50;99.90;;;;;;5019374;28;20056;-86
2021/04/30 08:28:38;;;;;;;18.48;12.85;;;7.60;99.90;;;;;;5015528;28;20115;-87
2021/04/30 08:31:05;;;;;;;20.55;12.93;;;7.70;99.90;;;;;;5014482;28;20058;-86
2021/04/30 08:33:36;;;;;;;16.20;12.52;;;7.90;99.90;;;;;;5013311;28;20046;-88
2021/04/30 08:36:03;;;;;;;11.80;9.10;;;8.00;99.90;;;;;;4997291;28;20062;-87
2021/04/30 08:38:30;;;;;;;18.00;12.80;;;8.10;99.90;;;;;;4997078;28;20054;-87
2021/04/30 08:41:00;;;;;;;15.57;11.95;;;8.20;99.90;;;;;;5012004;28;20402;-86
2021/04/30 08:43:26;;;;;;;18.67;13.50;;;8.40;99.90;;;;;;5012113;28;20053;-86
2021/04/30 08:45:54;;;;;;;18.88;12.55;;;8.50;99.90;;;;;;5014339;28;20041;-86
2021/04/30 08:48:26;;;;;;;14.45;11.52;;;8.70;99.90;;;;;;5000403;28;20395;-86
2021/04/30 08:50:55;;;;;;;18.25;12.23;;;9.10;99.90;;;;;;5013447;28;20060;-86
2021/04/30 08:53:22;;;;;;;15.30;11.77;;;9.20;99.90;;;;;;5016269;28;20148;-86
2021/04/30 08:55:51;;;;;;;16.42;11.70;;;9.30;99.90;;;;;;5014911;28;20412;-88
2021/04/30 08:58:27;;;;;;;15.68;11.35;;;9.20;99.90;;;;;;5013744;28;20045;-88
2021/04/30 09:00:58;;;;;;;14.50;11.25;;;9.20;99.90;;;;;;5032946;28;20037;-86
2021/04/30 09:03:25;;;;;;;13.85;11.10;;;9.10;99.90;;;;;;5012633;28;20041;-86
2021/04/30 09:05:56;;;;;;;14.93;11.75;;;9.10;99.90;;;;;;5012300;28;20042;-87
2021/04/30 09:08:29;;;;;;;23.40;13.63;;;9.00;99.90;;;;;;5014134;28;20050;-89
2021/04/30 09:11:07;;;;;;;20.48;13.32;;;9.00;99.90;;;;;;5014392;28;20045;-87
2021/04/30 09:13:44;;;;;;;20.10;13.48;;;8.80;99.90;;;;;;5027825;28;20115;-87
2021/04/30 09:16:12;;;;;;;16.05;12.60;;;8.80;99.90;;;;;;5015412;28;20049;-88
2021/04/30 09:18:49;;;;;;;21.27;13.32;;;8.80;99.90;;;;;;5016123;28;20045;-88
2021/04/30 09:21:18;;;;;;;17.63;13.45;;;8.80;99.90;;;;;;5014019;28;20052;-89
2021/04/30 09:23:54;;;;;;;;;;;8.90;99.90;;;;;;5015128;28;20045;-89
2021/04/30 09:26:29;;;;;;;17.92;14.20;;;8.80;99.90;;;;;;5015110;28;19920;-89
2021/04/30 09:29:12;;;;;;;17.17;13.50;;;9.10;99.90;;;;;;5028761;28;20141;-89
2021/04/30 09:31:43;;;;;;;22.30;14.35;;;8.80;99.90;;;;;;5032075;28;20115;-89
2021/04/30 09:34:36;;;;;;;20.27;13.20;;;8.70;99.90;;;;;;5014454;28;20167;-89
2021/04/30 09:37:17;;;;;;;15.85;12.80;;;8.70;99.90;;;;;;5032220;28;20505;-88
2021/04/30 09:39:55;;;;;;;20.58;14.32;;;8.80;99.90;;;;;;5022019;28;20064;-88
2021/04/30 09:42:24;;;;;;;18.30;13.75;;;8.80;99.90;;;;;;5012729;28;20050;-90
2021/04/30 09:44:59;;;;;;;24.20;14.23;;;8.40;99.90;;;;;;4972934;28;20065;-88
2021/04/30 09:47:36;;;;;;;19.67;13.63;;;8.40;99.90;;;;;;5010601;28;20046;-86
2021/04/30 09:50:24;;;;;;;20.27;13.02;;;8.40;99.90;;;;;;5012398;28;20069;-86
2021/04/30 09:52:58;;;;;;;22.27;14.38;;;8.40;99.90;;;;;;4978685;28;20058;-84
2021/04/30 09:55:48;;;;;;;20.23;14.57;;;8.50;99.90;;;;;;5027538;28;20375;-86
2021/04/30 09:58:29;;;;;;;20.08;14.52;;;8.50;99.90;;;;;;5013658;28;20042;-86
2021/04/30 10:00:59;;;;;;;19.85;14.35;;;8.60;99.90;;;;;;5012927;28;20053;-88
2021/04/30 10:03:34;;;;;;;19.63;14.73;;;8.70;99.90;;;;;;5006399;28;20050;-87
2021/04/30 10:06:19;;;;;;;21.13;14.82;;;8.70;99.90;;;;;;5012422;28;20054;-88
2021/04/30 10:09:07;;;;;;;22.98;14.88;;;8.60;99.90;;;;;;5006622;28;20054;-87
2021/04/30 10:11:34;;;;;;;23.98;14.88;;;8.40;99.90;;;;;;5001912;28;20050;-85
2021/04/30 10:14:02;;;;;;;17.85;14.35;;;8.50;99.90;;;;;;5012342;28;20042;-87
2021/04/30 10:16:32;;;;;;;21.00;14.13;;;8.40;99.90;;;;;;5014653;28;20054;-88
2021/04/30 10:19:00;;;;;;;23.30;14.73;;;8.40;99.90;;;;;;5011720;28;20076;-88
2021/04/30 10:21:30;;;;;;;23.73;15.55;;;8.30;99.90;;;;;;5015371;28;20065;-89
2021/04/30 10:24:00;;;;;;;23.42;16.23;;;8.20;99.90;;;;;;5016641;28;20053;-89
2021/04/30 10:26:30;;;;;;;44.78;25.02;;;8.00;99.90;;;;;;5017926;28;20046;-89
2021/04/30 10:29:01;;;;;;;33.22;18.80;;;7.80;99.90;;;;;;5013977;28;20061;-88
2021/04/30 10:31:34;;;;;;;;;;;7.60;99.90;;;;;;5003307;28;20050;-90
2021/04/30 10:34:08;;;;;;;31.00;17.98;;;7.50;99.90;;;;;;5013820;28;19925;-89
2021/04/30 10:36:40;;;;;;;24.60;18.67;;;7.40;99.90;;;;;;5012063;28;20442;-86
2021/04/30 10:39:08;;;;;;;29.60;20.40;;;7.10;99.90;;;;;;5011113;28;20050;-91
2021/04/30 10:41:43;;;;;;;32.28;21.77;;;6.90;99.90;;;;;;5010685;28;20053;-88
2021/04/30 10:44:24;;;;;;;33.63;23.33;;;6.80;99.90;;;;;;4993341;28;20185;-90
2021/04/30 10:47:12;;;;;;;32.00;23.55;;;6.60;99.90;;;;;;5008726;28;20062;-88
2021/04/30 10:49:41;;;;;;;34.63;25.08;;;6.40;99.90;;;;;;5009449;28;20073;-90
2021/04/30 10:52:08;;;;;;;35.85;24.77;;;6.30;99.90;;;;;;5012519;28;20127;-90
2021/04/30 10:54:41;;;;;;;33.08;24.55;;;6.10;99.90;;;;;;5005331;28;20093;-89
2021/04/30 10:57:18;;;;;;;47.17;28.27;;;6.00;99.90;;;;;;4986550;28;20046;-92
2021/04/30 10:59:44;;;;;;;42.42;29.10;;;6.00;99.90;;;;;;5008378;28;20042;-92
2021/04/30 11:02:13;;;;;;;42.00;29.92;;;5.90;99.90;;;;;;5014852;28;20117;-91
2021/04/30 11:04:39;;;;;;;51.25;33.33;;;5.80;99.90;;;;;;4998962;28;20333;-92
2021/04/30 11:07:15;;;;;;;57.92;34.75;;;5.70;99.90;;;;;;5011502;28;20064;-95
2021/04/30 11:09:42;;;;;;;55.00;35.08;;;5.70;99.90;;;;;;5013638;28;20042;-92
2021/04/30 11:12:19;;;;;;;53.92;35.58;;;5.70;99.90;;;;;;4982104;28;20065;-92
2021/04/30 11:15:04;;;;;;;56.85;35.63;;;5.70;99.90;;;;;;5010519;28;20045;-92
2021/04/30 11:18:03;;;;;;;53.42;34.42;;;5.60;99.90;;;;;;5013201;28;20046;-92
2021/04/30 11:20:36;;;;;;;53.85;35.60;;;5.60;99.90;;;;;;5016781;28;20371;-91
2021/04/30 11:23:22;;;;;;;42.55;24.77;;;5.50;99.90;;;;;;5013843;28;20323;-92
2021/04/30 11:26:00;;;;;;;54.13;35.15;;;5.50;99.90;;;;;;5019285;28;20060;-92
2021/04/30 11:28:50;;;;;;;56.72;37.20;;;5.40;99.90;;;;;;5020054;28;20046;-91
2021/04/30 11:31:32;;;;;;;63.03;38.67;;;5.40;99.90;;;;;;5023536;28;20121;-93
2021/04/30 11:34:28;;;;;;;63.08;37.97;;;5.50;99.90;;;;;;5025165;28;20118;-92
2021/04/30 11:37:21;;;;;;;;;;;;;;;;;;;;;
2021/04/30 11:40:56;;;;;;;;;;;;;;;;;;;;;
2021/04/30 11:43:38;;;;;;;;;;;5.40;99.90;;;;;;4943904;29;20032;-92
2021/04/30 11:46:28;;;;;;;61.15;34.13;;;5.30;99.90;;;;;;5025169;28;19921;-90
2021/04/30 11:49:29;;;;;;;55.10;36.00;;;5.30;99.90;;;;;;5034027;28;20034;-89
2021/04/30 11:53:02;;;;;;;60.45;37.10;;;5.40;99.90;;;;;;4935297;29;20147;-91
2021/04/30 11:55:51;;;;;;;61.53;35.63;;;5.40;99.90;;;;;;4948820;28;20067;-93
2021/04/30 12:02:24;;;;;;;57.10;36.10;;;5.30;99.90;;;;;;4943856;29;20348;-93
2021/04/30 12:05:11;;;;;;;61.50;35.70;;;5.10;99.90;;;;;;4956429;29;20074;-91
2021/04/30 12:08:30;;;;;;;58.08;33.92;;;5.20;99.90;;;;;;4919801;29;20457;-91
2021/04/30 12:11:33;;;;;;;58.70;36.65;;;5.10;99.90;;;;;;4930406;29;20134;-93
2021/04/30 12:14:10;;;;;;;62.55;36.85;;;5.00;99.90;;;;;;4934342;29;20059;-91
2021/04/30 12:16:38;;;;;;;59.58;36.03;;;5.00;99.90;;;;;;4932586;29;22038;-92
2021/04/30 12:19:51;;;;;;;66.45;36.65;;;5.00;99.90;;;;;;4918238;29;20135;-90
2021/04/30 12:22:23;;;;;;;56.67;34.90;;;5.00;99.90;;;;;;4923997;29;20055;-91
2021/04/30 12:25:22;;;;;;;59.78;34.72;;;5.10;99.90;;;;;;4936306;29;20052;-90
2021/04/30 12:27:53;;;;;;;53.45;32.80;;;5.10;99.90;;;;;;4943888;29;20058;-90
2021/04/30 12:30:32;;;;;;;48.47;31.80;;;5.20;99.90;;;;;;4936214;29;20051;-93
2021/04/30 12:33:15;;;;;;;;;;;;;;;;;;;;;
2021/04/30 12:35:57;;;;;;;49.75;31.65;;;5.30;99.90;;;;;;4922585;29;20091;-89
2021/04/30 12:38:27;;;;;;;44.95;29.58;;;5.40;99.90;;;;;;4907425;29;20126;-89
2021/04/30 12:41:05;;;;;;;46.28;30.65;;;5.40;99.90;;;;;;4929882;29;20060;-91
2021/04/30 12:43:37;;;;;;;41.20;28.05;;;5.40;99.90;;;;;;4929699;29;20156;-91
2021/04/30 12:46:27;;;;;;;40.60;28.15;;;5.40;99.90;;;;;;4913379;29;20195;-90
2021/04/30 12:49:14;;;;;;;45.20;29.17;;;5.40;99.90;;;;;;4922375;29;20050;-91
2021/04/30 12:51:43;;;;;;;45.80;28.85;;;5.40;99.90;;;;;;4921627;29;20052;-90
2021/04/30 12:54:13;;;;;;;41.20;29.00;;;5.50;99.90;;;;;;4934760;29;20067;-89
2021/04/30 12:56:51;;;;;;;48.42;31.00;;;5.40;99.90;;;;;;4932316;29;20048;-90
2021/04/30 12:59:20;;;;;;;49.00;31.83;;;5.50;99.90;;;;;;4931617;29;20123;-91
2021/04/30 13:01:51;;;;;;;46.75;30.25;;;5.50;99.90;;;;;;4914999;29;20118;-91
2021/04/30 13:04:24;;;;;;;47.72;31.05;;;5.40;99.90;;;;;;4932573;29;20052;-91
2021/04/30 13:06:53;;;;;;;50.53;31.10;;;5.60;99.90;;;;;;4933534;29;20052;-90
2021/04/30 13:09:24;;;;;;;41.92;29.30;;;5.60;99.90;;;;;;4916736;29;20461;-91
2021/04/30 13:12:14;;;;;;;45.22;30.55;;;5.60;99.90;;;;;;4915350;29;20075;-87
2021/04/30 13:14:42;;;;;;;43.50;29.80;;;5.70;99.90;;;;;;4898254;29;20143;-91